sensor_id;sensor_type;location;lat;lon;timestamp;P1;durP1;ratioP1;P2;durP2;ratioP2
31594;SDS011;18200;48.726;8.892;2023-03-12T00:01:38;14.27;;;7.28;;
31594;SDS011;18200;48.726;8.892;2023-03-12T00:05:39;16.10;;;7.85;;
31594;SDS011;18200;48.726;8.892;2023-03-12T00:09:43;22.58;;;7.70;;
31594;SDS011;18200;48.726;8.892;2023-03-12T00:13:47;23.75;;;8.23;;
31594;SDS011;18200;48.726;8.892;2023-03-12T00:17:51;20.90;;;8.40;;
31594;SDS011;18200;48.726;8.892;2023-03-12T00:21:52;18.10;;;7.68;;
31594;SDS011;18200;48.726;8.892;2023-03-12T00:25:53;16.60;;;7.18;;
31594;SDS011;18200;48.726;8.892;2023-03-12T00:29:53;18.52;;;7.53;;
31594;SDS011;18200;48.726;8.892;2023-03-12T00:33:54;15.65;;;7.15;;
31594;SDS011;18200;48.726;8.892;2023-03-12T00:37:55;18.98;;;8.50;;
31594;SDS011;18200;48.726;8.892;2023-03-12T00:41:56;19.90;;;9.23;;
31594;SDS011;18200;48.726;8.892;2023-03-12T00:45:56;21.00;;;10.13;;
31594;SDS011;18200;48.726;8.892;2023-03-12T00:49:57;19.48;;;8.63;;
31594;SDS011;18200;48.726;8.892;2023-03-12T00:53:57;17.15;;;7.90;;
31594;SDS011;18200;48.726;8.892;2023-03-12T00:57:58;15.65;;;7.68;;
31594;SDS011;18200;48.726;8.892;2023-03-12T01:01:58;16.60;;;7.70;;
31594;SDS011;18200;48.726;8.892;2023-03-12T01:05:59;12.60;;;6.45;;
31594;SDS011;18200;48.726;8.892;2023-03-12T01:09:59;19.98;;;7.70;;
31594;SDS011;18200;48.726;8.892;2023-03-12T01:14:00;14.70;;;6.20;;
31594;SDS011;18200;48.726;8.892;2023-03-12T01:18:02;16.27;;;7.70;;
31594;SDS011;18200;48.726;8.892;2023-03-12T01:22:03;12.93;;;6.53;;
31594;SDS011;18200;48.726;8.892;2023-03-12T01:26:03;19.77;;;6.80;;
31594;SDS011;18200;48.726;8.892;2023-03-12T01:30:04;14.77;;;5.88;;
31594;SDS011;18200;48.726;8.892;2023-03-12T01:34:04;16.23;;;6.43;;
31594;SDS011;18200;48.726;8.892;2023-03-12T01:38:06;12.80;;;6.38;;
31594;SDS011;18200;48.726;8.892;2023-03-12T01:42:07;15.13;;;6.70;;
31594;SDS011;18200;48.726;8.892;2023-03-12T01:50:20;15.10;;;6.93;;
31594;SDS011;18200;48.726;8.892;2023-03-12T01:54:25;15.95;;;6.57;;
31594;SDS011;18200;48.726;8.892;2023-03-12T01:58:27;17.50;;;7.40;;
31594;SDS011;18200;48.726;8.892;2023-03-12T02:02:32;16.50;;;7.75;;
31594;SDS011;18200;48.726;8.892;2023-03-12T02:06:39;16.58;;;6.68;;
31594;SDS011;18200;48.726;8.892;2023-03-12T02:10:44;15.65;;;6.85;;
31594;SDS011;18200;48.726;8.892;2023-03-12T02:14:45;22.83;;;6.22;;
31594;SDS011;18200;48.726;8.892;2023-03-12T02:18:46;15.43;;;7.05;;
31594;SDS011;18200;48.726;8.892;2023-03-12T02:23:03;18.83;;;6.97;;
31594;SDS011;18200;48.726;8.892;2023-03-12T02:27:07;13.00;;;6.47;;
31594;SDS011;18200;48.726;8.892;2023-03-12T02:31:14;21.17;;;7.80;;
31594;SDS011;18200;48.726;8.892;2023-03-12T02:35:20;15.85;;;7.13;;
31594;SDS011;18200;48.726;8.892;2023-03-12T02:39:20;13.73;;;6.72;;
31594;SDS011;18200;48.726;8.892;2023-03-12T02:43:21;13.27;;;6.80;;
31594;SDS011;18200;48.726;8.892;2023-03-12T02:47:21;12.98;;;6.80;;
31594;SDS011;18200;48.726;8.892;2023-03-12T02:51:22;16.33;;;7.25;;
31594;SDS011;18200;48.726;8.892;2023-03-12T02:55:22;17.23;;;6.65;;
31594;SDS011;18200;48.726;8.892;2023-03-12T02:59:23;16.88;;;7.82;;
31594;SDS011;18200;48.726;8.892;2023-03-12T03:03:29;15.57;;;7.10;;
31594;SDS011;18200;48.726;8.892;2023-03-12T03:07:29;18.75;;;6.88;;
31594;SDS011;18200;48.726;8.892;2023-03-12T03:11:31;18.90;;;7.32;;
31594;SDS011;18200;48.726;8.892;2023-03-12T03:15:33;16.70;;;7.70;;
31594;SDS011;18200;48.726;8.892;2023-03-12T03:19:34;19.35;;;7.60;;
31594;SDS011;18200;48.726;8.892;2023-03-12T03:23:35;13.57;;;6.55;;
31594;SDS011;18200;48.726;8.892;2023-03-12T03:27:36;18.17;;;7.00;;
31594;SDS011;18200;48.726;8.892;2023-03-12T03:31:36;13.93;;;6.50;;
31594;SDS011;18200;48.726;8.892;2023-03-12T03:35:37;15.68;;;7.15;;
31594;SDS011;18200;48.726;8.892;2023-03-12T03:39:38;15.40;;;6.45;;
31594;SDS011;18200;48.726;8.892;2023-03-12T03:43:38;15.23;;;6.32;;
31594;SDS011;18200;48.726;8.892;2023-03-12T03:47:39;15.75;;;6.75;;
31594;SDS011;18200;48.726;8.892;2023-03-12T03:51:40;20.23;;;6.72;;
31594;SDS011;18200;48.726;8.892;2023-03-12T03:55:47;13.65;;;6.43;;
31594;SDS011;18200;48.726;8.892;2023-03-12T03:59:48;15.43;;;6.93;;
31594;SDS011;18200;48.726;8.892;2023-03-12T04:03:49;10.75;;;5.97;;
31594;SDS011;18200;48.726;8.892;2023-03-12T04:07:51;13.80;;;6.57;;
31594;SDS011;18200;48.726;8.892;2023-03-12T04:11:54;9.77;;;5.30;;
31594;SDS011;18200;48.726;8.892;2023-03-12T04:15:55;18.23;;;6.72;;
31594;SDS011;18200;48.726;8.892;2023-03-12T04:19:56;17.40;;;6.10;;
31594;SDS011;18200;48.726;8.892;2023-03-12T04:23:57;20.20;;;6.47;;
31594;SDS011;18200;48.726;8.892;2023-03-12T04:28:02;15.05;;;6.65;;
31594;SDS011;18200;48.726;8.892;2023-03-12T04:32:04;21.15;;;8.63;;
31594;SDS011;18200;48.726;8.892;2023-03-12T04:36:04;57.40;;;22.27;;
31594;SDS011;18200;48.726;8.892;2023-03-12T04:40:06;31.42;;;11.60;;
31594;SDS011;18200;48.726;8.892;2023-03-12T04:44:09;22.30;;;8.88;;
31594;SDS011;18200;48.726;8.892;2023-03-12T04:48:10;17.70;;;9.23;;
31594;SDS011;18200;48.726;8.892;2023-03-12T04:52:10;19.35;;;9.35;;
31594;SDS011;18200;48.726;8.892;2023-03-12T04:56:11;18.67;;;8.73;;
31594;SDS011;18200;48.726;8.892;2023-03-12T05:00:12;38.22;;;15.75;;
31594;SDS011;18200;48.726;8.892;2023-03-12T05:04:16;25.50;;;11.73;;
31594;SDS011;18200;48.726;8.892;2023-03-12T05:08:17;20.60;;;9.18;;
31594;SDS011;18200;48.726;8.892;2023-03-12T05:12:17;40.08;;;18.20;;
31594;SDS011;18200;48.726;8.892;2023-03-12T05:16:18;19.92;;;10.65;;
31594;SDS011;18200;48.726;8.892;2023-03-12T05:20:19;19.55;;;9.23;;
31594;SDS011;18200;48.726;8.892;2023-03-12T05:24:21;16.33;;;6.93;;
31594;SDS011;18200;48.726;8.892;2023-03-12T05:28:22;15.85;;;6.88;;
31594;SDS011;18200;48.726;8.892;2023-03-12T05:32:27;13.45;;;6.55;;
31594;SDS011;18200;48.726;8.892;2023-03-12T05:36:28;15.75;;;6.68;;
31594;SDS011;18200;48.726;8.892;2023-03-12T05:40:29;14.57;;;6.75;;
31594;SDS011;18200;48.726;8.892;2023-03-12T05:44:29;13.13;;;6.35;;
31594;SDS011;18200;48.726;8.892;2023-03-12T05:48:30;10.85;;;6.70;;
31594;SDS011;18200;48.726;8.892;2023-03-12T05:52:30;17.13;;;6.57;;
31594;SDS011;18200;48.726;8.892;2023-03-12T05:56:32;13.70;;;6.80;;
31594;SDS011;18200;48.726;8.892;2023-03-12T06:00:32;19.50;;;7.05;;
31594;SDS011;18200;48.726;8.892;2023-03-12T06:04:37;15.43;;;6.50;;
31594;SDS011;18200;48.726;8.892;2023-03-12T06:08:39;13.15;;;6.70;;
31594;SDS011;18200;48.726;8.892;2023-03-12T06:12:40;18.15;;;6.38;;
31594;SDS011;18200;48.726;8.892;2023-03-12T06:16:40;15.55;;;6.65;;
31594;SDS011;18200;48.726;8.892;2023-03-12T06:20:41;14.07;;;6.57;;
31594;SDS011;18200;48.726;8.892;2023-03-12T06:24:42;17.75;;;6.65;;
31594;SDS011;18200;48.726;8.892;2023-03-12T06:28:48;18.35;;;7.88;;
31594;SDS011;18200;48.726;8.892;2023-03-12T06:32:49;15.15;;;6.97;;
31594;SDS011;18200;48.726;8.892;2023-03-12T06:36:49;15.40;;;7.10;;
31594;SDS011;18200;48.726;8.892;2023-03-12T06:40:57;14.18;;;8.18;;
31594;SDS011;18200;48.726;8.892;2023-03-12T06:44:59;17.55;;;8.50;;
31594;SDS011;18200;48.726;8.892;2023-03-12T06:48:59;17.13;;;9.18;;
31594;SDS011;18200;48.726;8.892;2023-03-12T06:52:59;13.35;;;7.80;;
31594;SDS011;18200;48.726;8.892;2023-03-12T06:57:00;13.75;;;7.28;;
31594;SDS011;18200;48.726;8.892;2023-03-12T07:01:00;18.98;;;7.82;;
31594;SDS011;18200;48.726;8.892;2023-03-12T07:05:00;18.38;;;9.02;;
31594;SDS011;18200;48.726;8.892;2023-03-12T07:09:01;16.83;;;8.85;;
31594;SDS011;18200;48.726;8.892;2023-03-12T07:13:02;17.73;;;8.38;;
31594;SDS011;18200;48.726;8.892;2023-03-12T07:17:02;21.27;;;9.07;;
31594;SDS011;18200;48.726;8.892;2023-03-12T07:21:03;15.50;;;9.45;;
31594;SDS011;18200;48.726;8.892;2023-03-12T07:25:04;16.52;;;8.90;;
31594;SDS011;18200;48.726;8.892;2023-03-12T07:29:04;20.90;;;10.57;;
31594;SDS011;18200;48.726;8.892;2023-03-12T07:33:09;19.85;;;12.00;;
31594;SDS011;18200;48.726;8.892;2023-03-12T07:37:11;19.55;;;11.15;;
31594;SDS011;18200;48.726;8.892;2023-03-12T07:41:11;25.58;;;12.70;;
31594;SDS011;18200;48.726;8.892;2023-03-12T07:45:12;24.40;;;13.27;;
31594;SDS011;18200;48.726;8.892;2023-03-12T07:49:12;23.95;;;12.90;;
31594;SDS011;18200;48.726;8.892;2023-03-12T07:53:13;25.15;;;12.88;;
31594;SDS011;18200;48.726;8.892;2023-03-12T07:57:13;25.30;;;14.23;;
31594;SDS011;18200;48.726;8.892;2023-03-12T08:01:14;28.67;;;14.43;;
31594;SDS011;18200;48.726;8.892;2023-03-12T08:05:14;23.67;;;13.02;;
31594;SDS011;18200;48.726;8.892;2023-03-12T08:09:15;20.60;;;12.00;;
31594;SDS011;18200;48.726;8.892;2023-03-12T08:13:15;23.95;;;12.48;;
31594;SDS011;18200;48.726;8.892;2023-03-12T08:17:16;23.65;;;12.48;;
31594;SDS011;18200;48.726;8.892;2023-03-12T08:21:17;20.27;;;12.05;;
31594;SDS011;18200;48.726;8.892;2023-03-12T08:25:17;23.65;;;12.38;;
31594;SDS011;18200;48.726;8.892;2023-03-12T08:29:20;25.55;;;13.05;;
31594;SDS011;18200;48.726;8.892;2023-03-12T08:33:20;20.27;;;12.25;;
31594;SDS011;18200;48.726;8.892;2023-03-12T08:37:21;19.77;;;12.07;;
31594;SDS011;18200;48.726;8.892;2023-03-12T08:41:22;22.38;;;12.43;;
31594;SDS011;18200;48.726;8.892;2023-03-12T08:45:22;21.20;;;11.88;;
31594;SDS011;18200;48.726;8.892;2023-03-12T08:49:23;18.98;;;11.13;;
31594;SDS011;18200;48.726;8.892;2023-03-12T08:53:24;20.65;;;12.32;;
31594;SDS011;18200;48.726;8.892;2023-03-12T08:57:25;22.70;;;12.30;;
31594;SDS011;18200;48.726;8.892;2023-03-12T09:01:26;21.38;;;11.88;;
31594;SDS011;18200;48.726;8.892;2023-03-12T09:05:26;25.08;;;12.85;;
31594;SDS011;18200;48.726;8.892;2023-03-12T09:09:29;24.80;;;12.25;;
31594;SDS011;18200;48.726;8.892;2023-03-12T09:13:30;29.95;;;16.42;;
31594;SDS011;18200;48.726;8.892;2023-03-12T09:17:30;20.20;;;12.55;;
31594;SDS011;18200;48.726;8.892;2023-03-12T09:21:31;24.40;;;13.57;;
31594;SDS011;18200;48.726;8.892;2023-03-12T09:25:31;20.13;;;11.77;;
31594;SDS011;18200;48.726;8.892;2023-03-12T09:29:32;19.10;;;10.82;;
31594;SDS011;18200;48.726;8.892;2023-03-12T09:33:32;15.93;;;9.40;;
31594;SDS011;18200;48.726;8.892;2023-03-12T09:37:34;17.23;;;8.50;;
31594;SDS011;18200;48.726;8.892;2023-03-12T09:41:35;13.25;;;7.53;;
31594;SDS011;18200;48.726;8.892;2023-03-12T09:45:41;9.07;;;5.60;;
31594;SDS011;18200;48.726;8.892;2023-03-12T09:49:50;8.25;;;5.10;;
31594;SDS011;18200;48.726;8.892;2023-03-12T09:53:57;6.30;;;3.50;;
31594;SDS011;18200;48.726;8.892;2023-03-12T09:57:59;5.85;;;3.30;;
31594;SDS011;18200;48.726;8.892;2023-03-12T10:02:00;5.97;;;3.20;;
31594;SDS011;18200;48.726;8.892;2023-03-12T10:06:12;6.30;;;2.95;;
31594;SDS011;18200;48.726;8.892;2023-03-12T10:14:45;4.82;;;2.78;;
31594;SDS011;18200;48.726;8.892;2023-03-12T10:19:14;3.65;;;3.10;;
31594;SDS011;18200;48.726;8.892;2023-03-12T10:23:48;3.33;;;1.70;;
31594;SDS011;18200;48.726;8.892;2023-03-12T10:28:24;1.83;;;1.42;;
31594;SDS011;18200;48.726;8.892;2023-03-12T10:32:36;2.70;;;1.60;;
31594;SDS011;18200;48.726;8.892;2023-03-12T10:36:41;2.80;;;1.70;;
31594;SDS011;18200;48.726;8.892;2023-03-12T10:40:41;2.47;;;1.60;;
31594;SDS011;18200;48.726;8.892;2023-03-12T10:44:41;2.47;;;1.27;;
31594;SDS011;18200;48.726;8.892;2023-03-12T10:48:42;1.95;;;1.45;;
31594;SDS011;18200;48.726;8.892;2023-03-12T10:52:43;5.40;;;3.08;;
31594;SDS011;18200;48.726;8.892;2023-03-12T10:56:49;3.50;;;1.40;;
31594;SDS011;18200;48.726;8.892;2023-03-12T11:00:54;2.50;;;1.20;;
31594;SDS011;18200;48.726;8.892;2023-03-12T11:04:57;2.67;;;1.00;;
31594;SDS011;18200;48.726;8.892;2023-03-12T11:09:32;3.65;;;1.10;;
31594;SDS011;18200;48.726;8.892;2023-03-12T11:13:32;1.30;;;0.70;;
31594;SDS011;18200;48.726;8.892;2023-03-12T11:17:34;1.95;;;0.93;;
31594;SDS011;18200;48.726;8.892;2023-03-12T11:21:35;3.08;;;0.95;;
31594;SDS011;18200;48.726;8.892;2023-03-12T11:25:37;5.13;;;1.30;;
31594;SDS011;18200;48.726;8.892;2023-03-12T11:29:38;5.00;;;1.60;;
31594;SDS011;18200;48.726;8.892;2023-03-12T11:33:47;2.42;;;1.00;;
31594;SDS011;18200;48.726;8.892;2023-03-12T11:37:57;5.88;;;1.23;;
31594;SDS011;18200;48.726;8.892;2023-03-12T11:50:56;3.80;;;1.30;;
31594;SDS011;18200;48.726;8.892;2023-03-12T11:55:17;6.30;;;1.50;;
31594;SDS011;18200;48.726;8.892;2023-03-12T11:59:35;5.03;;;1.10;;
31594;SDS011;18200;48.726;8.892;2023-03-12T12:12:14;7.95;;;2.00;;
31594;SDS011;18200;48.726;8.892;2023-03-12T12:16:38;8.85;;;1.92;;
31594;SDS011;18200;48.726;8.892;2023-03-12T12:34:27;5.63;;;1.63;;
31594;SDS011;18200;48.726;8.892;2023-03-12T12:38:55;8.23;;;1.65;;
31594;SDS011;18200;48.726;8.892;2023-03-12T12:47:39;6.97;;;1.88;;
31594;SDS011;18200;48.726;8.892;2023-03-12T12:51:49;8.30;;;1.80;;
31594;SDS011;18200;48.726;8.892;2023-03-12T12:55:58;9.23;;;1.70;;
31594;SDS011;18200;48.726;8.892;2023-03-12T13:04:31;5.00;;;1.73;;
31594;SDS011;18200;48.726;8.892;2023-03-12T13:12:50;7.80;;;2.42;;
31594;SDS011;18200;48.726;8.892;2023-03-12T13:17:04;8.45;;;2.47;;
31594;SDS011;18200;48.726;8.892;2023-03-12T13:21:18;9.35;;;2.35;;
31594;SDS011;18200;48.726;8.892;2023-03-12T13:34:41;8.30;;;2.00;;
31594;SDS011;18200;48.726;8.892;2023-03-12T13:47:36;5.10;;;1.38;;
31594;SDS011;18200;48.726;8.892;2023-03-12T13:51:42;5.90;;;1.80;;
31594;SDS011;18200;48.726;8.892;2023-03-12T13:55:44;15.32;;;2.22;;
31594;SDS011;18200;48.726;8.892;2023-03-12T13:59:58;7.25;;;1.45;;
31594;SDS011;18200;48.726;8.892;2023-03-12T14:03:59;6.47;;;1.75;;
31594;SDS011;18200;48.726;8.892;2023-03-12T14:20:58;5.20;;;1.65;;
31594;SDS011;18200;48.726;8.892;2023-03-12T14:25:02;8.52;;;2.88;;
31594;SDS011;18200;48.726;8.892;2023-03-12T14:29:18;6.68;;;1.40;;
31594;SDS011;18200;48.726;8.892;2023-03-12T14:33:22;9.57;;;1.80;;
31594;SDS011;18200;48.726;8.892;2023-03-12T14:37:31;7.22;;;2.42;;
31594;SDS011;18200;48.726;8.892;2023-03-12T14:41:40;8.90;;;2.63;;
31594;SDS011;18200;48.726;8.892;2023-03-12T14:45:48;8.43;;;2.85;;
31594;SDS011;18200;48.726;8.892;2023-03-12T14:49:50;8.40;;;1.92;;
31594;SDS011;18200;48.726;8.892;2023-03-12T14:53:51;6.70;;;1.67;;
31594;SDS011;18200;48.726;8.892;2023-03-12T14:58:02;7.97;;;1.38;;
31594;SDS011;18200;48.726;8.892;2023-03-12T15:06:17;8.25;;;1.83;;
31594;SDS011;18200;48.726;8.892;2023-03-12T15:10:24;10.50;;;3.05;;
31594;SDS011;18200;48.726;8.892;2023-03-12T15:14:27;11.35;;;2.47;;
31594;SDS011;18200;48.726;8.892;2023-03-12T15:18:31;13.32;;;3.70;;
31594;SDS011;18200;48.726;8.892;2023-03-12T15:22:32;13.07;;;2.45;;
31594;SDS011;18200;48.726;8.892;2023-03-12T15:26:34;9.52;;;2.40;;
31594;SDS011;18200;48.726;8.892;2023-03-12T15:30:38;8.63;;;2.03;;
31594;SDS011;18200;48.726;8.892;2023-03-12T15:34:39;10.82;;;2.30;;
31594;SDS011;18200;48.726;8.892;2023-03-12T15:38:43;12.20;;;2.15;;
31594;SDS011;18200;48.726;8.892;2023-03-12T15:42:46;12.98;;;3.10;;
31594;SDS011;18200;48.726;8.892;2023-03-12T15:46:49;10.00;;;2.33;;
31594;SDS011;18200;48.726;8.892;2023-03-12T15:50:52;11.52;;;2.50;;
31594;SDS011;18200;48.726;8.892;2023-03-12T16:03:18;10.43;;;2.50;;
31594;SDS011;18200;48.726;8.892;2023-03-12T16:07:20;14.05;;;2.55;;
31594;SDS011;18200;48.726;8.892;2023-03-12T16:11:21;13.13;;;2.85;;
31594;SDS011;18200;48.726;8.892;2023-03-12T16:15:25;14.60;;;2.83;;
31594;SDS011;18200;48.726;8.892;2023-03-12T16:19:29;13.30;;;2.92;;
31594;SDS011;18200;48.726;8.892;2023-03-12T16:23:32;8.38;;;2.20;;
31594;SDS011;18200;48.726;8.892;2023-03-12T16:27:33;12.18;;;3.15;;
31594;SDS011;18200;48.726;8.892;2023-03-12T16:35:38;13.68;;;2.80;;
31594;SDS011;18200;48.726;8.892;2023-03-12T16:39:39;13.13;;;4.47;;
31594;SDS011;18200;48.726;8.892;2023-03-12T16:43:39;19.88;;;5.00;;
31594;SDS011;18200;48.726;8.892;2023-03-12T16:47:41;18.83;;;3.58;;
31594;SDS011;18200;48.726;8.892;2023-03-12T16:51:43;19.33;;;4.95;;
31594;SDS011;18200;48.726;8.892;2023-03-12T16:55:56;20.42;;;4.38;;
31594;SDS011;18200;48.726;8.892;2023-03-12T16:59:59;15.57;;;3.88;;
31594;SDS011;18200;48.726;8.892;2023-03-12T17:04:01;16.02;;;2.92;;
31594;SDS011;18200;48.726;8.892;2023-03-12T17:08:03;13.52;;;4.00;;
31594;SDS011;18200;48.726;8.892;2023-03-12T17:12:05;43.65;;;16.70;;
31594;SDS011;18200;48.726;8.892;2023-03-12T17:16:10;67.05;;;22.52;;
31594;SDS011;18200;48.726;8.892;2023-03-12T17:20:16;39.58;;;13.65;;
31594;SDS011;18200;48.726;8.892;2023-03-12T17:24:18;25.17;;;8.98;;
31594;SDS011;18200;48.726;8.892;2023-03-12T17:28:19;37.97;;;18.10;;
31594;SDS011;18200;48.726;8.892;2023-03-12T17:32:19;15.15;;;6.55;;
31594;SDS011;18200;48.726;8.892;2023-03-12T17:36:19;18.40;;;6.90;;
31594;SDS011;18200;48.726;8.892;2023-03-12T17:40:20;14.57;;;3.70;;
31594;SDS011;18200;48.726;8.892;2023-03-12T17:44:20;14.68;;;4.25;;
31594;SDS011;18200;48.726;8.892;2023-03-12T17:48:21;19.80;;;6.70;;
31594;SDS011;18200;48.726;8.892;2023-03-12T17:52:22;60.42;;;22.38;;
31594;SDS011;18200;48.726;8.892;2023-03-12T17:56:23;36.83;;;13.52;;
31594;SDS011;18200;48.726;8.892;2023-03-12T18:00:23;33.78;;;15.05;;
31594;SDS011;18200;48.726;8.892;2023-03-12T18:04:24;54.38;;;22.27;;
31594;SDS011;18200;48.726;8.892;2023-03-12T18:08:24;27.70;;;7.60;;
31594;SDS011;18200;48.726;8.892;2023-03-12T18:12:25;15.73;;;5.55;;
31594;SDS011;18200;48.726;8.892;2023-03-12T18:16:25;28.35;;;9.35;;
31594;SDS011;18200;48.726;8.892;2023-03-12T18:20:25;17.83;;;5.68;;
31594;SDS011;18200;48.726;8.892;2023-03-12T18:24:26;17.88;;;6.22;;
31594;SDS011;18200;48.726;8.892;2023-03-12T18:28:26;16.13;;;5.72;;
31594;SDS011;18200;48.726;8.892;2023-03-12T18:32:27;21.40;;;7.63;;
31594;SDS011;18200;48.726;8.892;2023-03-12T18:36:27;23.27;;;8.45;;
31594;SDS011;18200;48.726;8.892;2023-03-12T18:40:28;26.25;;;9.38;;
31594;SDS011;18200;48.726;8.892;2023-03-12T18:44:28;18.33;;;6.95;;
31594;SDS011;18200;48.726;8.892;2023-03-12T18:48:29;15.88;;;5.57;;
31594;SDS011;18200;48.726;8.892;2023-03-12T18:52:29;17.45;;;7.03;;
31594;SDS011;18200;48.726;8.892;2023-03-12T18:56:30;16.00;;;8.15;;
31594;SDS011;18200;48.726;8.892;2023-03-12T19:00:30;22.40;;;10.18;;
31594;SDS011;18200;48.726;8.892;2023-03-12T19:04:31;22.42;;;8.13;;
31594;SDS011;18200;48.726;8.892;2023-03-12T19:08:31;24.25;;;10.63;;
31594;SDS011;18200;48.726;8.892;2023-03-12T19:12:32;16.67;;;9.30;;
31594;SDS011;18200;48.726;8.892;2023-03-12T19:16:33;28.10;;;12.80;;
31594;SDS011;18200;48.726;8.892;2023-03-12T19:20:33;25.65;;;9.95;;
31594;SDS011;18200;48.726;8.892;2023-03-12T19:24:35;23.80;;;10.10;;
31594;SDS011;18200;48.726;8.892;2023-03-12T19:28:36;38.13;;;18.40;;
31594;SDS011;18200;48.726;8.892;2023-03-12T19:32:36;31.33;;;15.35;;
31594;SDS011;18200;48.726;8.892;2023-03-12T19:36:37;36.72;;;16.42;;
31594;SDS011;18200;48.726;8.892;2023-03-12T19:40:37;43.55;;;18.90;;
31594;SDS011;18200;48.726;8.892;2023-03-12T19:44:38;38.33;;;18.17;;
31594;SDS011;18200;48.726;8.892;2023-03-12T19:48:39;35.00;;;15.98;;
31594;SDS011;18200;48.726;8.892;2023-03-12T19:52:40;30.95;;;14.55;;
31594;SDS011;18200;48.726;8.892;2023-03-12T19:56:40;28.15;;;11.93;;
31594;SDS011;18200;48.726;8.892;2023-03-12T20:00:41;24.00;;;11.05;;
31594;SDS011;18200;48.726;8.892;2023-03-12T20:04:42;30.67;;;12.77;;
